Parkside, Pennsylvania
Current Conditions -  °F | °C
As of 12:54 PM on Thursday 29 Jan 2015 (Local Time) from KPHL Reporting Station
Overcast Overcast  
Wind Chill: 29°   Ceiling: 13000
Heat Index: 33°   Visibility: 10mi
Dew Point:   Wind: 5mph
Humidity: 34%   Direction: 170°S
Pressure: 30.24"   Gusts: NA
Location:  39.8463°N, 75.374°W
Report Text: KPHL 291754Z 17004KT 10SM BKN130 BKN170 OVC260 01/M14 A3024 RMK AO2 SLP238 T00061139 10006 21061 58031 $
Loading
Personal Weather Stations






























Interactive Weather Map New forecast layout! Learn more

10-Day Weather Forecast

Advertisements
Track Severe Weather on mobile